sensor_id;sensor_type;location;lat;lon;timestamp;P1;durP1;ratioP1;P2;durP2;ratioP2
64188;SDS011;50493;50.970;10.082;2023-04-24T00:00:30;2.20;;;1.35;;
64188;SDS011;50493;50.970;10.082;2023-04-24T00:02:56;2.95;;;1.90;;
64188;SDS011;50493;50.970;10.082;2023-04-24T00:05:24;2.78;;;1.48;;
64188;SDS011;50493;50.970;10.082;2023-04-24T00:07:49;5.20;;;1.70;;
64188;SDS011;50493;50.970;10.082;2023-04-24T00:10:17;4.07;;;1.75;;
64188;SDS011;50493;50.970;10.082;2023-04-24T00:12:43;3.90;;;1.83;;
64188;SDS011;50493;50.970;10.082;2023-04-24T00:15:09;3.92;;;1.75;;
64188;SDS011;50493;50.970;10.082;2023-04-24T00:17:35;3.83;;;1.88;;
64188;SDS011;50493;50.970;10.082;2023-04-24T00:20:01;3.38;;;1.85;;
64188;SDS011;50493;50.970;10.082;2023-04-24T00:22:30;3.78;;;2.00;;
64188;SDS011;50493;50.970;10.082;2023-04-24T00:24:56;2.53;;;1.73;;
64188;SDS011;50493;50.970;10.082;2023-04-24T00:27:22;4.85;;;2.00;;
64188;SDS011;50493;50.970;10.082;2023-04-24T00:29:47;3.90;;;1.60;;
64188;SDS011;50493;50.970;10.082;2023-04-24T00:32:12;3.35;;;1.98;;
64188;SDS011;50493;50.970;10.082;2023-04-24T00:34:38;4.82;;;1.85;;
64188;SDS011;50493;50.970;10.082;2023-04-24T00:37:04;3.75;;;1.90;;
64188;SDS011;50493;50.970;10.082;2023-04-24T00:39:31;2.90;;;1.52;;
64188;SDS011;50493;50.970;10.082;2023-04-24T00:41:56;2.85;;;1.80;;
64188;SDS011;50493;50.970;10.082;2023-04-24T00:44:22;3.22;;;1.80;;
64188;SDS011;50493;50.970;10.082;2023-04-24T00:46:48;2.63;;;1.83;;
64188;SDS011;50493;50.970;10.082;2023-04-24T00:49:19;3.05;;;1.70;;
64188;SDS011;50493;50.970;10.082;2023-04-24T00:51:45;2.65;;;1.80;;
64188;SDS011;50493;50.970;10.082;2023-04-24T00:54:11;2.83;;;1.67;;
64188;SDS011;50493;50.970;10.082;2023-04-24T00:56:38;2.88;;;1.70;;
64188;SDS011;50493;50.970;10.082;2023-04-24T00:59:04;3.08;;;1.92;;
64188;SDS011;50493;50.970;10.082;2023-04-24T01:01:30;3.25;;;1.75;;
64188;SDS011;50493;50.970;10.082;2023-04-24T01:03:55;2.72;;;1.70;;
64188;SDS011;50493;50.970;10.082;2023-04-24T01:06:22;3.10;;;2.05;;
64188;SDS011;50493;50.970;10.082;2023-04-24T01:08:52;2.88;;;1.70;;
64188;SDS011;50493;50.970;10.082;2023-04-24T01:11:17;2.53;;;1.60;;
64188;SDS011;50493;50.970;10.082;2023-04-24T01:13:44;3.15;;;1.70;;
64188;SDS011;50493;50.970;10.082;2023-04-24T01:16:10;3.28;;;1.67;;
64188;SDS011;50493;50.970;10.082;2023-04-24T01:18:36;3.63;;;1.73;;
64188;SDS011;50493;50.970;10.082;2023-04-24T01:21:02;2.83;;;1.48;;
64188;SDS011;50493;50.970;10.082;2023-04-24T01:23:30;2.67;;;1.60;;
64188;SDS011;50493;50.970;10.082;2023-04-24T01:25:56;3.30;;;1.50;;
64188;SDS011;50493;50.970;10.082;2023-04-24T01:28:21;6.03;;;1.80;;
64188;SDS011;50493;50.970;10.082;2023-04-24T01:30:47;3.58;;;1.73;;
64188;SDS011;50493;50.970;10.082;2023-04-24T01:33:13;3.58;;;1.52;;
64188;SDS011;50493;50.970;10.082;2023-04-24T01:35:38;2.53;;;1.65;;
64188;SDS011;50493;50.970;10.082;2023-04-24T01:38:04;3.65;;;1.70;;
64188;SDS011;50493;50.970;10.082;2023-04-24T01:40:32;3.85;;;1.60;;
64188;SDS011;50493;50.970;10.082;2023-04-24T01:42:57;2.85;;;1.38;;
64188;SDS011;50493;50.970;10.082;2023-04-24T01:45:22;2.67;;;1.50;;
64188;SDS011;50493;50.970;10.082;2023-04-24T01:47:48;2.60;;;1.67;;
64188;SDS011;50493;50.970;10.082;2023-04-24T01:50:14;2.08;;;1.35;;
64188;SDS011;50493;50.970;10.082;2023-04-24T01:52:40;2.90;;;1.60;;
64188;SDS011;50493;50.970;10.082;2023-04-24T01:55:06;3.15;;;1.58;;
64188;SDS011;50493;50.970;10.082;2023-04-24T01:57:33;3.25;;;1.30;;
64188;SDS011;50493;50.970;10.082;2023-04-24T01:59:59;2.78;;;1.60;;
64188;SDS011;50493;50.970;10.082;2023-04-24T02:02:24;2.45;;;1.52;;
64188;SDS011;50493;50.970;10.082;2023-04-24T02:04:52;2.63;;;1.50;;
64188;SDS011;50493;50.970;10.082;2023-04-24T02:07:17;2.67;;;1.40;;
64188;SDS011;50493;50.970;10.082;2023-04-24T02:09:43;3.38;;;1.67;;
64188;SDS011;50493;50.970;10.082;2023-04-24T02:12:08;3.05;;;1.50;;
64188;SDS011;50493;50.970;10.082;2023-04-24T02:14:35;2.40;;;1.40;;
64188;SDS011;50493;50.970;10.082;2023-04-24T02:17:01;2.45;;;1.42;;
64188;SDS011;50493;50.970;10.082;2023-04-24T02:19:26;3.45;;;1.55;;
64188;SDS011;50493;50.970;10.082;2023-04-24T02:21:51;2.33;;;1.50;;
64188;SDS011;50493;50.970;10.082;2023-04-24T02:24:17;3.40;;;1.50;;
64188;SDS011;50493;50.970;10.082;2023-04-24T02:26:42;2.03;;;1.33;;
64188;SDS011;50493;50.970;10.082;2023-04-24T02:29:07;2.63;;;1.50;;
64188;SDS011;50493;50.970;10.082;2023-04-24T02:31:34;5.47;;;1.38;;
64188;SDS011;50493;50.970;10.082;2023-04-24T02:33:59;2.92;;;1.40;;
64188;SDS011;50493;50.970;10.082;2023-04-24T02:36:25;2.38;;;1.38;;
64188;SDS011;50493;50.970;10.082;2023-04-24T02:38:50;3.80;;;1.60;;
64188;SDS011;50493;50.970;10.082;2023-04-24T02:41:15;2.35;;;1.50;;
64188;SDS011;50493;50.970;10.082;2023-04-24T02:43:41;2.08;;;1.30;;
64188;SDS011;50493;50.970;10.082;2023-04-24T02:46:06;2.78;;;1.50;;
64188;SDS011;50493;50.970;10.082;2023-04-24T02:48:33;2.13;;;1.38;;
64188;SDS011;50493;50.970;10.082;2023-04-24T02:50:58;2.65;;;1.48;;
64188;SDS011;50493;50.970;10.082;2023-04-24T02:53:23;2.03;;;1.40;;
64188;SDS011;50493;50.970;10.082;2023-04-24T02:55:49;3.08;;;1.30;;
64188;SDS011;50493;50.970;10.082;2023-04-24T02:58:14;2.25;;;1.48;;
64188;SDS011;50493;50.970;10.082;2023-04-24T03:00:40;4.20;;;1.63;;
64188;SDS011;50493;50.970;10.082;2023-04-24T03:03:06;2.47;;;1.40;;
64188;SDS011;50493;50.970;10.082;2023-04-24T03:05:33;2.40;;;1.60;;
64188;SDS011;50493;50.970;10.082;2023-04-24T03:07:58;4.30;;;1.60;;
64188;SDS011;50493;50.970;10.082;2023-04-24T03:10:24;2.72;;;1.42;;
64188;SDS011;50493;50.970;10.082;2023-04-24T03:12:49;2.67;;;1.38;;
64188;SDS011;50493;50.970;10.082;2023-04-24T03:15:14;3.00;;;1.48;;
64188;SDS011;50493;50.970;10.082;2023-04-24T03:17:40;2.58;;;1.48;;
64188;SDS011;50493;50.970;10.082;2023-04-24T03:20:06;2.53;;;1.50;;
64188;SDS011;50493;50.970;10.082;2023-04-24T03:22:34;3.42;;;1.45;;
64188;SDS011;50493;50.970;10.082;2023-04-24T03:25:00;2.10;;;1.25;;
64188;SDS011;50493;50.970;10.082;2023-04-24T03:27:25;2.38;;;1.40;;
64188;SDS011;50493;50.970;10.082;2023-04-24T03:29:50;4.40;;;1.48;;
64188;SDS011;50493;50.970;10.082;2023-04-24T03:32:22;3.50;;;1.52;;
64188;SDS011;50493;50.970;10.082;2023-04-24T03:34:47;3.17;;;1.35;;
64188;SDS011;50493;50.970;10.082;2023-04-24T03:37:13;1.83;;;1.30;;
64188;SDS011;50493;50.970;10.082;2023-04-24T03:39:39;1.80;;;1.20;;
64188;SDS011;50493;50.970;10.082;2023-04-24T03:42:05;3.53;;;1.30;;
64188;SDS011;50493;50.970;10.082;2023-04-24T03:44:30;2.08;;;1.38;;
64188;SDS011;50493;50.970;10.082;2023-04-24T03:46:55;2.40;;;1.65;;
64188;SDS011;50493;50.970;10.082;2023-04-24T03:49:22;2.42;;;1.40;;
64188;SDS011;50493;50.970;10.082;2023-04-24T03:51:48;2.28;;;1.08;;
64188;SDS011;50493;50.970;10.082;2023-04-24T03:54:13;2.50;;;1.20;;
64188;SDS011;50493;50.970;10.082;2023-04-24T03:56:40;1.73;;;0.95;;
64188;SDS011;50493;50.970;10.082;2023-04-24T03:59:05;3.38;;;1.50;;
64188;SDS011;50493;50.970;10.082;2023-04-24T04:01:31;5.15;;;1.33;;
64188;SDS011;50493;50.970;10.082;2023-04-24T04:03:56;3.45;;;1.30;;
64188;SDS011;50493;50.970;10.082;2023-04-24T04:06:21;3.97;;;1.23;;
64188;SDS011;50493;50.970;10.082;2023-04-24T04:08:47;3.58;;;1.35;;
64188;SDS011;50493;50.970;10.082;2023-04-24T04:11:12;4.38;;;1.50;;
64188;SDS011;50493;50.970;10.082;2023-04-24T04:13:39;2.70;;;1.40;;
64188;SDS011;50493;50.970;10.082;2023-04-24T04:16:05;2.88;;;1.27;;
64188;SDS011;50493;50.970;10.082;2023-04-24T04:18:30;3.78;;;1.20;;
64188;SDS011;50493;50.970;10.082;2023-04-24T04:20:56;2.67;;;1.48;;
64188;SDS011;50493;50.970;10.082;2023-04-24T04:23:22;3.17;;;1.30;;
64188;SDS011;50493;50.970;10.082;2023-04-24T04:25:47;2.65;;;1.42;;
64188;SDS011;50493;50.970;10.082;2023-04-24T04:28:12;5.85;;;1.42;;
64188;SDS011;50493;50.970;10.082;2023-04-24T04:30:39;2.35;;;1.08;;
64188;SDS011;50493;50.970;10.082;2023-04-24T04:33:05;3.55;;;1.60;;
64188;SDS011;50493;50.970;10.082;2023-04-24T04:35:30;3.45;;;1.40;;
64188;SDS011;50493;50.970;10.082;2023-04-24T04:37:55;2.28;;;1.40;;
64188;SDS011;50493;50.970;10.082;2023-04-24T04:40:23;2.42;;;1.20;;
64188;SDS011;50493;50.970;10.082;2023-04-24T04:42:49;2.88;;;1.48;;
64188;SDS011;50493;50.970;10.082;2023-04-24T04:45:17;3.38;;;1.50;;
64188;SDS011;50493;50.970;10.082;2023-04-24T04:47:45;3.13;;;1.30;;
64188;SDS011;50493;50.970;10.082;2023-04-24T04:50:10;2.30;;;1.35;;
64188;SDS011;50493;50.970;10.082;2023-04-24T04:52:36;2.67;;;1.35;;
64188;SDS011;50493;50.970;10.082;2023-04-24T04:55:01;3.85;;;1.50;;
64188;SDS011;50493;50.970;10.082;2023-04-24T04:57:26;4.00;;;1.70;;
64188;SDS011;50493;50.970;10.082;2023-04-24T04:59:52;3.15;;;1.75;;
64188;SDS011;50493;50.970;10.082;2023-04-24T05:02:17;2.92;;;1.60;;
64188;SDS011;50493;50.970;10.082;2023-04-24T05:04:44;4.05;;;1.45;;
64188;SDS011;50493;50.970;10.082;2023-04-24T05:07:10;5.05;;;1.48;;
64188;SDS011;50493;50.970;10.082;2023-04-24T05:09:35;5.03;;;1.65;;
64188;SDS011;50493;50.970;10.082;2023-04-24T05:12:00;4.40;;;1.52;;
64188;SDS011;50493;50.970;10.082;2023-04-24T05:14:27;1.92;;;1.15;;
64188;SDS011;50493;50.970;10.082;2023-04-24T05:16:52;2.42;;;1.40;;
64188;SDS011;50493;50.970;10.082;2023-04-24T05:19:17;3.63;;;1.27;;
64188;SDS011;50493;50.970;10.082;2023-04-24T05:21:44;2.90;;;1.42;;
64188;SDS011;50493;50.970;10.082;2023-04-24T05:24:10;2.63;;;1.20;;
64188;SDS011;50493;50.970;10.082;2023-04-24T05:26:35;2.20;;;1.20;;
64188;SDS011;50493;50.970;10.082;2023-04-24T05:29:01;4.15;;;1.33;;
64188;SDS011;50493;50.970;10.082;2023-04-24T05:31:27;2.28;;;1.13;;
64188;SDS011;50493;50.970;10.082;2023-04-24T05:33:52;4.03;;;1.55;;
64188;SDS011;50493;50.970;10.082;2023-04-24T05:36:18;2.83;;;1.65;;
64188;SDS011;50493;50.970;10.082;2023-04-24T05:38:44;1.70;;;1.08;;
64188;SDS011;50493;50.970;10.082;2023-04-24T05:41:10;2.58;;;1.40;;
64188;SDS011;50493;50.970;10.082;2023-04-24T05:43:35;2.72;;;1.30;;
64188;SDS011;50493;50.970;10.082;2023-04-24T05:46:00;3.08;;;1.35;;
64188;SDS011;50493;50.970;10.082;2023-04-24T05:48:26;2.03;;;1.02;;
64188;SDS011;50493;50.970;10.082;2023-04-24T05:50:51;1.75;;;1.30;;
64188;SDS011;50493;50.970;10.082;2023-04-24T05:53:17;3.42;;;1.20;;
64188;SDS011;50493;50.970;10.082;2023-04-24T05:55:44;1.80;;;1.23;;
64188;SDS011;50493;50.970;10.082;2023-04-24T05:58:10;1.70;;;1.10;;
64188;SDS011;50493;50.970;10.082;2023-04-24T06:00:35;1.73;;;1.23;;
64188;SDS011;50493;50.970;10.082;2023-04-24T06:03:01;3.75;;;1.38;;
64188;SDS011;50493;50.970;10.082;2023-04-24T06:05:28;1.88;;;1.40;;
64188;SDS011;50493;50.970;10.082;2023-04-24T06:07:53;2.67;;;1.50;;
64188;SDS011;50493;50.970;10.082;2023-04-24T06:10:19;3.58;;;1.60;;
64188;SDS011;50493;50.970;10.082;2023-04-24T06:12:45;2.05;;;1.30;;
64188;SDS011;50493;50.970;10.082;2023-04-24T06:15:11;2.53;;;1.42;;
64188;SDS011;50493;50.970;10.082;2023-04-24T06:17:36;3.05;;;1.50;;
64188;SDS011;50493;50.970;10.082;2023-04-24T06:20:02;3.10;;;1.40;;
64188;SDS011;50493;50.970;10.082;2023-04-24T06:22:30;2.53;;;1.45;;
64188;SDS011;50493;50.970;10.082;2023-04-24T06:24:55;2.80;;;1.50;;
64188;SDS011;50493;50.970;10.082;2023-04-24T06:27:20;3.97;;;1.50;;
64188;SDS011;50493;50.970;10.082;2023-04-24T06:29:47;2.50;;;1.50;;
64188;SDS011;50493;50.970;10.082;2023-04-24T06:32:19;3.50;;;1.38;;
64188;SDS011;50493;50.970;10.082;2023-04-24T06:34:45;1.80;;;1.30;;
64188;SDS011;50493;50.970;10.082;2023-04-24T06:37:10;2.13;;;1.30;;
64188;SDS011;50493;50.970;10.082;2023-04-24T06:39:35;4.10;;;1.50;;
64188;SDS011;50493;50.970;10.082;2023-04-24T06:42:01;1.60;;;1.30;;
64188;SDS011;50493;50.970;10.082;2023-04-24T06:44:26;2.80;;;1.50;;
64188;SDS011;50493;50.970;10.082;2023-04-24T06:46:53;2.67;;;1.30;;
64188;SDS011;50493;50.970;10.082;2023-04-24T06:49:18;2.25;;;1.50;;
64188;SDS011;50493;50.970;10.082;2023-04-24T06:51:43;4.28;;;1.50;;
64188;SDS011;50493;50.970;10.082;2023-04-24T06:54:09;1.70;;;1.30;;
64188;SDS011;50493;50.970;10.082;2023-04-24T06:56:35;2.85;;;1.60;;
64188;SDS011;50493;50.970;10.082;2023-04-24T06:59:00;2.67;;;1.33;;
64188;SDS011;50493;50.970;10.082;2023-04-24T07:01:26;2.47;;;1.70;;
64188;SDS011;50493;50.970;10.082;2023-04-24T07:03:52;2.78;;;1.50;;
64188;SDS011;50493;50.970;10.082;2023-04-24T07:06:18;3.25;;;1.30;;
64188;SDS011;50493;50.970;10.082;2023-04-24T07:08:46;2.17;;;1.40;;
64188;SDS011;50493;50.970;10.082;2023-04-24T07:11:12;2.20;;;1.40;;
64188;SDS011;50493;50.970;10.082;2023-04-24T07:13:37;3.92;;;1.60;;
64188;SDS011;50493;50.970;10.082;2023-04-24T07:16:06;2.45;;;1.35;;
64188;SDS011;50493;50.970;10.082;2023-04-24T07:18:32;2.15;;;1.50;;
64188;SDS011;50493;50.970;10.082;2023-04-24T07:20:59;2.53;;;1.50;;
64188;SDS011;50493;50.970;10.082;2023-04-24T07:23:24;2.33;;;1.50;;
64188;SDS011;50493;50.970;10.082;2023-04-24T07:25:50;2.10;;;1.40;;
64188;SDS011;50493;50.970;10.082;2023-04-24T07:28:15;3.33;;;1.40;;
64188;SDS011;50493;50.970;10.082;2023-04-24T07:30:42;2.40;;;1.55;;
64188;SDS011;50493;50.970;10.082;2023-04-24T07:33:07;2.80;;;1.42;;
64188;SDS011;50493;50.970;10.082;2023-04-24T07:35:33;2.95;;;1.70;;
64188;SDS011;50493;50.970;10.082;2023-04-24T07:38:00;2.88;;;1.60;;
64188;SDS011;50493;50.970;10.082;2023-04-24T07:40:25;2.10;;;1.60;;
64188;SDS011;50493;50.970;10.082;2023-04-24T07:42:51;2.58;;;1.50;;
64188;SDS011;50493;50.970;10.082;2023-04-24T07:45:16;2.25;;;1.50;;
64188;SDS011;50493;50.970;10.082;2023-04-24T07:47:42;2.47;;;1.60;;
64188;SDS011;50493;50.970;10.082;2023-04-24T07:50:09;2.40;;;1.40;;
64188;SDS011;50493;50.970;10.082;2023-04-24T07:52:35;2.80;;;1.92;;
64188;SDS011;50493;50.970;10.082;2023-04-24T07:55:02;2.65;;;1.80;;
64188;SDS011;50493;50.970;10.082;2023-04-24T07:57:28;2.70;;;1.80;;
64188;SDS011;50493;50.970;10.082;2023-04-24T07:59:53;5.80;;;1.90;;
64188;SDS011;50493;50.970;10.082;2023-04-24T08:02:19;3.47;;;1.92;;
64188;SDS011;50493;50.970;10.082;2023-04-24T08:04:44;3.40;;;1.77;;
64188;SDS011;50493;50.970;10.082;2023-04-24T08:07:10;3.03;;;1.98;;
64188;SDS011;50493;50.970;10.082;2023-04-24T08:09:37;4.43;;;2.00;;
64188;SDS011;50493;50.970;10.082;2023-04-24T08:12:04;3.70;;;1.75;;
64188;SDS011;50493;50.970;10.082;2023-04-24T08:14:30;3.58;;;1.98;;
64188;SDS011;50493;50.970;10.082;2023-04-24T08:16:55;2.92;;;1.90;;
64188;SDS011;50493;50.970;10.082;2023-04-24T08:19:21;3.50;;;1.92;;
64188;SDS011;50493;50.970;10.082;2023-04-24T08:21:46;3.72;;;2.00;;
64188;SDS011;50493;50.970;10.082;2023-04-24T08:24:12;2.70;;;1.70;;
64188;SDS011;50493;50.970;10.082;2023-04-24T08:26:37;2.65;;;1.55;;
64188;SDS011;50493;50.970;10.082;2023-04-24T08:29:04;4.57;;;2.10;;
64188;SDS011;50493;50.970;10.082;2023-04-24T08:31:29;4.05;;;1.90;;
64188;SDS011;50493;50.970;10.082;2023-04-24T08:33:54;3.13;;;1.85;;
64188;SDS011;50493;50.970;10.082;2023-04-24T08:36:20;3.95;;;1.92;;
64188;SDS011;50493;50.970;10.082;2023-04-24T08:38:45;2.80;;;1.60;;
64188;SDS011;50493;50.970;10.082;2023-04-24T08:41:11;3.05;;;1.60;;
64188;SDS011;50493;50.970;10.082;2023-04-24T08:43:39;3.13;;;2.17;;
64188;SDS011;50493;50.970;10.082;2023-04-24T08:46:07;2.95;;;1.67;;
64188;SDS011;50493;50.970;10.082;2023-04-24T08:48:32;3.92;;;1.80;;
64188;SDS011;50493;50.970;10.082;2023-04-24T08:50:58;3.97;;;2.30;;
64188;SDS011;50493;50.970;10.082;2023-04-24T08:53:24;4.25;;;1.90;;
64188;SDS011;50493;50.970;10.082;2023-04-24T08:55:51;4.32;;;2.25;;
64188;SDS011;50493;50.970;10.082;2023-04-24T08:58:19;2.85;;;2.00;;
64188;SDS011;50493;50.970;10.082;2023-04-24T09:00:44;4.10;;;2.10;;
64188;SDS011;50493;50.970;10.082;2023-04-24T09:03:13;3.88;;;2.00;;
64188;SDS011;50493;50.970;10.082;2023-04-24T09:05:40;4.32;;;1.95;;
64188;SDS011;50493;50.970;10.082;2023-04-24T09:08:10;2.80;;;1.90;;
64188;SDS011;50493;50.970;10.082;2023-04-24T09:10:38;3.92;;;2.17;;
64188;SDS011;50493;50.970;10.082;2023-04-24T09:13:04;4.30;;;2.10;;
64188;SDS011;50493;50.970;10.082;2023-04-24T09:15:30;3.88;;;2.10;;
64188;SDS011;50493;50.970;10.082;2023-04-24T09:17:56;3.60;;;2.25;;
64188;SDS011;50493;50.970;10.082;2023-04-24T09:20:23;3.92;;;2.40;;
64188;SDS011;50493;50.970;10.082;2023-04-24T09:22:52;3.63;;;2.20;;
64188;SDS011;50493;50.970;10.082;2023-04-24T09:25:18;4.70;;;2.22;;
64188;SDS011;50493;50.970;10.082;2023-04-24T09:27:44;4.18;;;2.25;;
64188;SDS011;50493;50.970;10.082;2023-04-24T09:30:10;4.93;;;2.50;;
64188;SDS011;50493;50.970;10.082;2023-04-24T09:32:36;4.07;;;2.30;;
64188;SDS011;50493;50.970;10.082;2023-04-24T09:35:06;5.93;;;2.60;;
64188;SDS011;50493;50.970;10.082;2023-04-24T09:37:36;2.92;;;1.92;;
64188;SDS011;50493;50.970;10.082;2023-04-24T09:40:09;4.50;;;2.38;;
64188;SDS011;50493;50.970;10.082;2023-04-24T09:42:37;3.45;;;2.10;;
64188;SDS011;50493;50.970;10.082;2023-04-24T09:45:02;5.80;;;2.30;;
64188;SDS011;50493;50.970;10.082;2023-04-24T09:47:30;4.07;;;2.33;;
64188;SDS011;50493;50.970;10.082;2023-04-24T09:50:01;3.85;;;2.28;;
64188;SDS011;50493;50.970;10.082;2023-04-24T09:52:36;4.32;;;2.33;;
64188;SDS011;50493;50.970;10.082;2023-04-24T09:55:10;3.88;;;2.53;;
64188;SDS011;50493;50.970;10.082;2023-04-24T09:57:36;5.28;;;2.83;;
64188;SDS011;50493;50.970;10.082;2023-04-24T10:00:12;5.18;;;2.25;;
64188;SDS011;50493;50.970;10.082;2023-04-24T10:02:38;5.63;;;2.42;;
64188;SDS011;50493;50.970;10.082;2023-04-24T10:05:04;2.92;;;1.92;;
64188;SDS011;50493;50.970;10.082;2023-04-24T10:07:32;5.60;;;2.70;;
64188;SDS011;50493;50.970;10.082;2023-04-24T10:09:59;3.75;;;2.40;;
64188;SDS011;50493;50.970;10.082;2023-04-24T10:12:24;3.65;;;2.22;;
64188;SDS011;50493;50.970;10.082;2023-04-24T10:14:50;4.57;;;2.50;;
64188;SDS011;50493;50.970;10.082;2023-04-24T10:17:16;3.85;;;2.45;;
64188;SDS011;50493;50.970;10.082;2023-04-24T10:19:42;4.57;;;2.20;;
64188;SDS011;50493;50.970;10.082;2023-04-24T10:22:08;4.93;;;2.42;;
64188;SDS011;50493;50.970;10.082;2023-04-24T10:24:34;5.30;;;2.47;;
64188;SDS011;50493;50.970;10.082;2023-04-24T10:27:03;3.08;;;2.17;;
64188;SDS011;50493;50.970;10.082;2023-04-24T10:29:31;4.47;;;2.20;;
64188;SDS011;50493;50.970;10.082;2023-04-24T10:31:56;3.70;;;2.10;;
64188;SDS011;50493;50.970;10.082;2023-04-24T10:34:22;5.22;;;1.92;;
64188;SDS011;50493;50.970;10.082;2023-04-24T10:36:50;4.10;;;2.17;;
64188;SDS011;50493;50.970;10.082;2023-04-24T10:39:17;3.63;;;2.05;;
64188;SDS011;50493;50.970;10.082;2023-04-24T10:41:43;3.22;;;2.20;;
64188;SDS011;50493;50.970;10.082;2023-04-24T10:44:13;2.90;;;1.75;;
64188;SDS011;50493;50.970;10.082;2023-04-24T10:46:40;3.17;;;1.95;;
64188;SDS011;50493;50.970;10.082;2023-04-24T10:49:08;5.03;;;2.25;;
64188;SDS011;50493;50.970;10.082;2023-04-24T10:51:44;4.70;;;2.08;;
64188;SDS011;50493;50.970;10.082;2023-04-24T10:54:27;5.10;;;2.33;;
64188;SDS011;50493;50.970;10.082;2023-04-24T10:57:25;2.70;;;1.80;;
64188;SDS011;50493;50.970;10.082;2023-04-24T11:00:16;3.03;;;1.80;;
64188;SDS011;50493;50.970;10.082;2023-04-24T11:02:45;2.72;;;1.83;;
64188;SDS011;50493;50.970;10.082;2023-04-24T11:05:15;3.42;;;1.80;;
64188;SDS011;50493;50.970;10.082;2023-04-24T11:10:37;4.63;;;2.20;;
64188;SDS011;50493;50.970;10.082;2023-04-24T11:13:03;4.03;;;1.60;;
64188;SDS011;50493;50.970;10.082;2023-04-24T11:15:30;2.70;;;1.70;;
64188;SDS011;50493;50.970;10.082;2023-04-24T11:17:55;3.25;;;1.85;;
64188;SDS011;50493;50.970;10.082;2023-04-24T11:20:22;1.60;;;1.20;;
64188;SDS011;50493;50.970;10.082;2023-04-24T11:22:48;3.58;;;1.80;;
64188;SDS011;50493;50.970;10.082;2023-04-24T11:25:19;2.58;;;1.52;;
64188;SDS011;50493;50.970;10.082;2023-04-24T11:27:47;5.28;;;1.95;;
64188;SDS011;50493;50.970;10.082;2023-04-24T11:30:16;3.47;;;1.77;;
64188;SDS011;50493;50.970;10.082;2023-04-24T11:32:46;2.60;;;1.77;;
64188;SDS011;50493;50.970;10.082;2023-04-24T11:35:14;3.13;;;1.90;;
64188;SDS011;50493;50.970;10.082;2023-04-24T11:37:41;3.67;;;1.90;;
64188;SDS011;50493;50.970;10.082;2023-04-24T11:40:11;2.60;;;1.70;;
64188;SDS011;50493;50.970;10.082;2023-04-24T11:42:38;4.80;;;2.00;;
64188;SDS011;50493;50.970;10.082;2023-04-24T11:45:07;2.33;;;1.30;;
64188;SDS011;50493;50.970;10.082;2023-04-24T11:47:33;2.60;;;1.67;;
64188;SDS011;50493;50.970;10.082;2023-04-24T11:50:00;3.58;;;1.63;;
64188;SDS011;50493;50.970;10.082;2023-04-24T11:52:26;1.50;;;1.00;;
64188;SDS011;50493;50.970;10.082;2023-04-24T11:54:51;2.00;;;1.20;;
64188;SDS011;50493;50.970;10.082;2023-04-24T11:57:18;1.85;;;1.20;;
64188;SDS011;50493;50.970;10.082;2023-04-24T11:59:44;2.55;;;1.45;;
64188;SDS011;50493;50.970;10.082;2023-04-24T12:02:19;1.38;;;0.90;;
64188;SDS011;50493;50.970;10.082;2023-04-24T12:04:45;1.05;;;0.70;;
64188;SDS011;50493;50.970;10.082;2023-04-24T12:07:12;1.60;;;0.60;;
64188;SDS011;50493;50.970;10.082;2023-04-24T12:09:41;1.80;;;0.88;;
64188;SDS011;50493;50.970;10.082;2023-04-24T12:12:07;1.60;;;1.10;;
64188;SDS011;50493;50.970;10.082;2023-04-24T12:14:41;2.17;;;0.88;;
64188;SDS011;50493;50.970;10.082;2023-04-24T12:17:07;3.42;;;1.23;;
64188;SDS011;50493;50.970;10.082;2023-04-24T12:19:32;1.48;;;1.08;;
64188;SDS011;50493;50.970;10.082;2023-04-24T12:22:01;2.30;;;1.35;;
64188;SDS011;50493;50.970;10.082;2023-04-24T12:24:29;2.53;;;1.40;;
64188;SDS011;50493;50.970;10.082;2023-04-24T12:26:55;5.00;;;1.65;;
64188;SDS011;50493;50.970;10.082;2023-04-24T12:29:21;0.50;;;0.50;;
64188;SDS011;50493;50.970;10.082;2023-04-24T12:31:46;2.60;;;1.50;;
64188;SDS011;50493;50.970;10.082;2023-04-24T12:34:17;1.85;;;1.20;;
64188;SDS011;50493;50.970;10.082;2023-04-24T12:36:43;2.83;;;1.50;;
64188;SDS011;50493;50.970;10.082;2023-04-24T12:39:13;4.32;;;1.30;;
64188;SDS011;50493;50.970;10.082;2023-04-24T12:41:48;3.08;;;0.82;;
64188;SDS011;50493;50.970;10.082;2023-04-24T12:44:15;1.65;;;0.73;;
64188;SDS011;50493;50.970;10.082;2023-04-24T12:46:40;1.60;;;1.20;;
64188;SDS011;50493;50.970;10.082;2023-04-24T12:49:05;1.25;;;0.90;;
64188;SDS011;50493;50.970;10.082;2023-04-24T12:51:31;1.33;;;1.08;;
64188;SDS011;50493;50.970;10.082;2023-04-24T12:53:56;1.23;;;1.00;;
64188;SDS011;50493;50.970;10.082;2023-04-24T12:56:22;1.38;;;1.00;;
64188;SDS011;50493;50.970;10.082;2023-04-24T12:58:50;0.93;;;0.80;;
64188;SDS011;50493;50.970;10.082;2023-04-24T13:01:16;2.20;;;1.10;;
64188;SDS011;50493;50.970;10.082;2023-04-24T13:03:42;1.98;;;0.80;;
64188;SDS011;50493;50.970;10.082;2023-04-24T13:06:08;1.05;;;0.90;;
64188;SDS011;50493;50.970;10.082;2023-04-24T13:08:33;1.58;;;0.90;;
64188;SDS011;50493;50.970;10.082;2023-04-24T13:10:59;1.00;;;0.80;;
64188;SDS011;50493;50.970;10.082;2023-04-24T13:13:24;1.23;;;0.80;;
64188;SDS011;50493;50.970;10.082;2023-04-24T13:15:51;1.38;;;0.90;;
64188;SDS011;50493;50.970;10.082;2023-04-24T13:18:17;2.72;;;0.80;;
64188;SDS011;50493;50.970;10.082;2023-04-24T13:20:42;1.90;;;0.80;;
64188;SDS011;50493;50.970;10.082;2023-04-24T13:23:08;1.40;;;0.90;;
64188;SDS011;50493;50.970;10.082;2023-04-24T13:25:35;1.02;;;0.70;;
64188;SDS011;50493;50.970;10.082;2023-04-24T13:28:02;1.23;;;0.73;;
64188;SDS011;50493;50.970;10.082;2023-04-24T13:30:27;1.08;;;0.80;;
64188;SDS011;50493;50.970;10.082;2023-04-24T13:32:54;2.35;;;0.90;;
64188;SDS011;50493;50.970;10.082;2023-04-24T13:35:19;1.58;;;0.90;;
64188;SDS011;50493;50.970;10.082;2023-04-24T13:37:44;1.60;;;0.80;;
64188;SDS011;50493;50.970;10.082;2023-04-24T13:40:10;1.35;;;0.90;;
64188;SDS011;50493;50.970;10.082;2023-04-24T13:42:36;2.08;;;0.98;;
64188;SDS011;50493;50.970;10.082;2023-04-24T13:45:01;0.98;;;0.85;;
64188;SDS011;50493;50.970;10.082;2023-04-24T13:47:26;2.83;;;0.80;;
64188;SDS011;50493;50.970;10.082;2023-04-24T13:49:53;1.73;;;0.80;;
64188;SDS011;50493;50.970;10.082;2023-04-24T13:52:19;1.27;;;0.93;;
64188;SDS011;50493;50.970;10.082;2023-04-24T13:54:44;1.70;;;0.88;;
64188;SDS011;50493;50.970;10.082;2023-04-24T13:57:09;1.55;;;0.80;;
64188;SDS011;50493;50.970;10.082;2023-04-24T13:59:35;2.42;;;1.00;;
64188;SDS011;50493;50.970;10.082;2023-04-24T14:02:02;1.80;;;0.88;;
64188;SDS011;50493;50.970;10.082;2023-04-24T14:04:27;1.70;;;1.00;;
64188;SDS011;50493;50.970;10.082;2023-04-24T14:06:54;1.25;;;0.90;;
64188;SDS011;50493;50.970;10.082;2023-04-24T14:09:19;2.40;;;1.10;;
64188;SDS011;50493;50.970;10.082;2023-04-24T14:11:44;1.88;;;1.17;;
64188;SDS011;50493;50.970;10.082;2023-04-24T14:14:10;2.40;;;1.40;;
64188;SDS011;50493;50.970;10.082;2023-04-24T14:16:35;1.85;;;1.20;;
64188;SDS011;50493;50.970;10.082;2023-04-24T14:19:01;3.05;;;1.30;;
64188;SDS011;50493;50.970;10.082;2023-04-24T14:21:26;1.98;;;1.40;;
64188;SDS011;50493;50.970;10.082;2023-04-24T14:23:52;2.08;;;1.20;;
64188;SDS011;50493;50.970;10.082;2023-04-24T14:26:18;2.85;;;1.50;;
64188;SDS011;50493;50.970;10.082;2023-04-24T14:28:44;2.58;;;1.50;;
64188;SDS011;50493;50.970;10.082;2023-04-24T14:31:10;2.35;;;1.50;;